首页
METAR-TAF:

METAR-TAF

机场 :

多多马, 坦桑尼亚

纬度: 06-10S, 经度: 035-46E, 海拔: 1119米

当前天气观测

该预报发布于1小时和27分钟前的12:00 UTC
风速13节,风向
温度 27°C
湿度 48%
气压 1018 hPa
能见度10公里或以上
散云层高于2800英尺
少量云层高于2900英尺, 积雨云.

METAR: HTDO 191200Z 09013KT 9999 SCT028 FEW029CB 27/15 Q1018 NOSIG

时间: 16:27 (13:27 UTC)

预报

该预报发布于2小时和27分钟前的11:00 UTC
预报有效从19日的 12点(UTC)到 20日的 12点(UTC)
风速12节,风向
能见度10公里或以上
散云层高于2800英尺

TAF: HTDO 191100Z 1912/2012 10012KT 9999 SCT028

超过4000个机场的气象观测和天气预报(METAR&TAF报告)。

可查询的气象台以黄色和红色小点在地图上表示。

将鼠标移到小点上方,可查看气象台名称。

然后点击查看天气观测和预报。

如需切换地图:点击带黑十字的绿色按钮放大地图;点击带横线的绿色按钮缩小地图;或者点击绿色箭头查看邻近地区的地图。


METAR-TAF: